Terminal Aerodrome Forecast
Issued by NWS San Angelo, TX

Home | Current Version | Previous Version | Text Only | Print | Product List | Glossary On
Versions: 1 2 3 4 5 6 7 8 9 10 11 12
000
FTUS44 KSJT 010500
TAFSJT
TAF
KSJT 010520Z 0106/0206 18009KT P6SM SCT200
     FM011500 18013G20KT P6SM FEW120
     FM020000 19010KT P6SM SKC=

USA.gov is the U.S. government's official web portal to all federal, state and local government web resources and services.